sensor_id;sensor_type;location;lat;lon;timestamp;temperature;humidity
29849;DHT22;16728;50.832;5.590;2022-10-17T00:00:59;16.50;99.90
29849;DHT22;16728;50.832;5.590;2022-10-17T00:04:01;16.50;99.90
29849;DHT22;16728;50.832;5.590;2022-10-17T00:07:03;16.60;99.90
29849;DHT22;16728;50.832;5.590;2022-10-17T00:10:06;16.60;99.90
29849;DHT22;16728;50.832;5.590;2022-10-17T00:13:08;16.70;99.90
29849;DHT22;16728;50.832;5.590;2022-10-17T00:16:11;16.70;99.90
29849;DHT22;16728;50.832;5.590;2022-10-17T00:19:13;16.70;99.90
29849;DHT22;16728;50.832;5.590;2022-10-17T00:22:14;16.70;99.90
29849;DHT22;16728;50.832;5.590;2022-10-17T00:25:17;16.80;99.90
29849;DHT22;16728;50.832;5.590;2022-10-17T00:28:19;16.80;99.90
29849;DHT22;16728;50.832;5.590;2022-10-17T00:31:22;16.80;99.90
29849;DHT22;16728;50.832;5.590;2022-10-17T00:34:24;16.80;99.90
29849;DHT22;16728;50.832;5.590;2022-10-17T00:37:26;16.80;99.90
29849;DHT22;16728;50.832;5.590;2022-10-17T00:40:28;16.90;99.90
29849;DHT22;16728;50.832;5.590;2022-10-17T00:44:01;17.00;99.90
29849;DHT22;16728;50.832;5.590;2022-10-17T00:47:05;17.00;99.90
29849;DHT22;16728;50.832;5.590;2022-10-17T00:50:10;17.00;99.90
29849;DHT22;16728;50.832;5.590;2022-10-17T00:53:13;17.00;99.90
29849;DHT22;16728;50.832;5.590;2022-10-17T00:56:15;17.10;99.90
29849;DHT22;16728;50.832;5.590;2022-10-17T00:59:19;17.10;99.90
29849;DHT22;16728;50.832;5.590;2022-10-17T01:02:22;17.10;99.90
29849;DHT22;16728;50.832;5.590;2022-10-17T01:05:24;17.10;99.90
29849;DHT22;16728;50.832;5.590;2022-10-17T01:08:26;17.10;99.90
29849;DHT22;16728;50.832;5.590;2022-10-17T01:15:02;17.10;99.90
29849;DHT22;16728;50.832;5.590;2022-10-17T01:21:40;17.10;99.90
29849;DHT22;16728;50.832;5.590;2022-10-17T01:24:59;17.10;99.90
29849;DHT22;16728;50.832;5.590;2022-10-17T01:31:22;17.10;99.90
29849;DHT22;16728;50.832;5.590;2022-10-17T01:34:34;17.10;99.90
29849;DHT22;16728;50.832;5.590;2022-10-17T01:37:47;17.10;99.90
29849;DHT22;16728;50.832;5.590;2022-10-17T01:40:59;17.00;99.90
29849;DHT22;16728;50.832;5.590;2022-10-17T01:44:09;17.00;99.90
29849;DHT22;16728;50.832;5.590;2022-10-17T01:47:19;16.90;99.90
29849;DHT22;16728;50.832;5.590;2022-10-17T01:50:36;16.90;99.90
29849;DHT22;16728;50.832;5.590;2022-10-17T01:53:45;16.90;99.90
29849;DHT22;16728;50.832;5.590;2022-10-17T01:56:50;16.90;99.90
29849;DHT22;16728;50.832;5.590;2022-10-17T01:59:54;16.90;99.90
29849;DHT22;16728;50.832;5.590;2022-10-17T02:03:01;16.90;99.90
29849;DHT22;16728;50.832;5.590;2022-10-17T02:06:05;16.90;99.90
29849;DHT22;16728;50.832;5.590;2022-10-17T02:09:19;16.90;99.90
29849;DHT22;16728;50.832;5.590;2022-10-17T02:12:46;16.90;99.90
29849;DHT22;16728;50.832;5.590;2022-10-17T02:23:08;16.90;99.90
29849;DHT22;16728;50.832;5.590;2022-10-17T02:26:23;16.90;99.90
29849;DHT22;16728;50.832;5.590;2022-10-17T02:29:37;16.90;99.90
29849;DHT22;16728;50.832;5.590;2022-10-17T02:33:01;16.90;99.90
29849;DHT22;16728;50.832;5.590;2022-10-17T02:36:14;16.80;99.90
29849;DHT22;16728;50.832;5.590;2022-10-17T02:39:20;16.80;99.90
29849;DHT22;16728;50.832;5.590;2022-10-17T02:42:23;16.80;99.90
29849;DHT22;16728;50.832;5.590;2022-10-17T02:45:28;16.80;99.90
29849;DHT22;16728;50.832;5.590;2022-10-17T02:48:36;16.90;99.90
29849;DHT22;16728;50.832;5.590;2022-10-17T02:51:51;16.90;99.90
29849;DHT22;16728;50.832;5.590;2022-10-17T02:55:05;16.90;99.90
29849;DHT22;16728;50.832;5.590;2022-10-17T02:58:15;16.90;99.90
29849;DHT22;16728;50.832;5.590;2022-10-17T03:01:18;16.90;99.90
29849;DHT22;16728;50.832;5.590;2022-10-17T03:04:21;16.90;99.90
29849;DHT22;16728;50.832;5.590;2022-10-17T03:07:22;16.90;99.90
29849;DHT22;16728;50.832;5.590;2022-10-17T03:10:24;16.90;99.90
29849;DHT22;16728;50.832;5.590;2022-10-17T03:13:27;17.00;99.90
29849;DHT22;16728;50.832;5.590;2022-10-17T03:16:29;17.00;99.90
29849;DHT22;16728;50.832;5.590;2022-10-17T03:19:30;17.00;99.90
29849;DHT22;16728;50.832;5.590;2022-10-17T03:22:32;17.10;99.90
29849;DHT22;16728;50.832;5.590;2022-10-17T03:25:34;17.10;99.90
29849;DHT22;16728;50.832;5.590;2022-10-17T03:28:36;17.10;99.90
29849;DHT22;16728;50.832;5.590;2022-10-17T03:31:38;17.10;99.90
29849;DHT22;16728;50.832;5.590;2022-10-17T03:34:40;17.00;99.90
29849;DHT22;16728;50.832;5.590;2022-10-17T03:37:42;17.00;99.90
29849;DHT22;16728;50.832;5.590;2022-10-17T03:40:43;17.10;99.90
29849;DHT22;16728;50.832;5.590;2022-10-17T03:43:45;17.00;99.90
29849;DHT22;16728;50.832;5.590;2022-10-17T03:46:47;17.10;99.90
29849;DHT22;16728;50.832;5.590;2022-10-17T03:49:49;17.10;99.90
29849;DHT22;16728;50.832;5.590;2022-10-17T03:52:50;17.20;99.90
29849;DHT22;16728;50.832;5.590;2022-10-17T03:55:52;17.30;99.90
29849;DHT22;16728;50.832;5.590;2022-10-17T03:58:55;17.30;99.90
29849;DHT22;16728;50.832;5.590;2022-10-17T04:01:57;17.30;99.90
29849;DHT22;16728;50.832;5.590;2022-10-17T04:04:59;17.30;99.90
29849;DHT22;16728;50.832;5.590;2022-10-17T04:08:01;17.30;99.90
29849;DHT22;16728;50.832;5.590;2022-10-17T04:11:07;17.40;99.90
29849;DHT22;16728;50.832;5.590;2022-10-17T04:14:09;17.40;99.90
29849;DHT22;16728;50.832;5.590;2022-10-17T04:17:11;17.40;99.90
29849;DHT22;16728;50.832;5.590;2022-10-17T04:20:13;17.40;99.90
29849;DHT22;16728;50.832;5.590;2022-10-17T04:23:15;17.40;99.90
29849;DHT22;16728;50.832;5.590;2022-10-17T04:26:16;17.40;99.90
29849;DHT22;16728;50.832;5.590;2022-10-17T04:29:18;17.40;99.90
29849;DHT22;16728;50.832;5.590;2022-10-17T04:32:20;17.40;99.90
29849;DHT22;16728;50.832;5.590;2022-10-17T04:35:22;17.40;99.90
29849;DHT22;16728;50.832;5.590;2022-10-17T04:38:24;17.40;99.90
29849;DHT22;16728;50.832;5.590;2022-10-17T04:41:29;17.30;99.90
29849;DHT22;16728;50.832;5.590;2022-10-17T04:44:30;17.40;99.90
29849;DHT22;16728;50.832;5.590;2022-10-17T04:47:34;17.30;99.90
29849;DHT22;16728;50.832;5.590;2022-10-17T04:50:36;17.30;99.90
29849;DHT22;16728;50.832;5.590;2022-10-17T04:53:38;17.30;99.90
29849;DHT22;16728;50.832;5.590;2022-10-17T04:56:40;17.30;99.90
29849;DHT22;16728;50.832;5.590;2022-10-17T04:59:43;17.30;99.90
29849;DHT22;16728;50.832;5.590;2022-10-17T05:02:45;17.20;99.90
29849;DHT22;16728;50.832;5.590;2022-10-17T05:05:47;17.20;99.90
29849;DHT22;16728;50.832;5.590;2022-10-17T05:08:49;17.20;99.90
29849;DHT22;16728;50.832;5.590;2022-10-17T05:11:51;17.20;99.90
29849;DHT22;16728;50.832;5.590;2022-10-17T05:14:53;17.20;99.90
29849;DHT22;16728;50.832;5.590;2022-10-17T05:17:56;17.20;99.90
29849;DHT22;16728;50.832;5.590;2022-10-17T05:20:58;17.20;99.90
29849;DHT22;16728;50.832;5.590;2022-10-17T05:23:59;17.20;99.90
29849;DHT22;16728;50.832;5.590;2022-10-17T05:27:01;17.20;99.90
29849;DHT22;16728;50.832;5.590;2022-10-17T05:30:03;17.20;99.90
29849;DHT22;16728;50.832;5.590;2022-10-17T05:33:06;17.30;99.90
29849;DHT22;16728;50.832;5.590;2022-10-17T05:36:08;17.30;99.90
29849;DHT22;16728;50.832;5.590;2022-10-17T05:39:12;17.30;99.90
29849;DHT22;16728;50.832;5.590;2022-10-17T05:42:15;17.30;99.90
29849;DHT22;16728;50.832;5.590;2022-10-17T05:45:17;17.30;99.90
29849;DHT22;16728;50.832;5.590;2022-10-17T05:48:20;17.30;99.90
29849;DHT22;16728;50.832;5.590;2022-10-17T05:51:22;17.40;99.90
29849;DHT22;16728;50.832;5.590;2022-10-17T05:54:24;17.40;99.90
29849;DHT22;16728;50.832;5.590;2022-10-17T05:57:26;17.40;99.90
29849;DHT22;16728;50.832;5.590;2022-10-17T06:00:29;17.40;99.90
29849;DHT22;16728;50.832;5.590;2022-10-17T06:03:32;17.40;99.90
29849;DHT22;16728;50.832;5.590;2022-10-17T06:06:36;17.40;99.90
29849;DHT22;16728;50.832;5.590;2022-10-17T06:09:38;17.40;99.90
29849;DHT22;16728;50.832;5.590;2022-10-17T06:12:41;17.40;99.90
29849;DHT22;16728;50.832;5.590;2022-10-17T06:15:43;17.40;99.90
29849;DHT22;16728;50.832;5.590;2022-10-17T06:18:45;17.30;99.90
29849;DHT22;16728;50.832;5.590;2022-10-17T06:21:52;17.30;99.90
29849;DHT22;16728;50.832;5.590;2022-10-17T06:24:54;17.30;99.90
29849;DHT22;16728;50.832;5.590;2022-10-17T06:27:56;17.30;99.90
29849;DHT22;16728;50.832;5.590;2022-10-17T06:30:57;17.30;99.90
29849;DHT22;16728;50.832;5.590;2022-10-17T06:33:59;17.30;99.90
29849;DHT22;16728;50.832;5.590;2022-10-17T06:37:01;17.30;99.90
29849;DHT22;16728;50.832;5.590;2022-10-17T06:40:03;17.30;99.90
29849;DHT22;16728;50.832;5.590;2022-10-17T06:43:05;17.30;99.90
29849;DHT22;16728;50.832;5.590;2022-10-17T06:46:08;17.30;99.90
29849;DHT22;16728;50.832;5.590;2022-10-17T06:49:09;17.30;99.90
29849;DHT22;16728;50.832;5.590;2022-10-17T06:52:11;17.30;99.90
29849;DHT22;16728;50.832;5.590;2022-10-17T06:55:13;17.20;99.90
29849;DHT22;16728;50.832;5.590;2022-10-17T06:58:20;17.20;99.90
29849;DHT22;16728;50.832;5.590;2022-10-17T07:01:23;17.20;99.90
29849;DHT22;16728;50.832;5.590;2022-10-17T07:04:24;17.20;99.90
29849;DHT22;16728;50.832;5.590;2022-10-17T07:07:29;17.30;99.90
29849;DHT22;16728;50.832;5.590;2022-10-17T07:10:32;17.30;99.90
29849;DHT22;16728;50.832;5.590;2022-10-17T07:13:39;17.40;99.90
29849;DHT22;16728;50.832;5.590;2022-10-17T07:16:41;17.40;99.90
29849;DHT22;16728;50.832;5.590;2022-10-17T07:19:42;17.50;99.90
29849;DHT22;16728;50.832;5.590;2022-10-17T07:22:44;17.50;99.90
29849;DHT22;16728;50.832;5.590;2022-10-17T07:25:46;17.50;99.90
29849;DHT22;16728;50.832;5.590;2022-10-17T07:28:51;17.60;99.90
29849;DHT22;16728;50.832;5.590;2022-10-17T07:31:53;17.70;99.90
29849;DHT22;16728;50.832;5.590;2022-10-17T07:34:55;17.90;99.90
29849;DHT22;16728;50.832;5.590;2022-10-17T07:37:57;17.90;99.90
29849;DHT22;16728;50.832;5.590;2022-10-17T07:41:01;18.00;99.90
29849;DHT22;16728;50.832;5.590;2022-10-17T07:44:03;18.10;99.90
29849;DHT22;16728;50.832;5.590;2022-10-17T07:47:05;18.20;99.90
29849;DHT22;16728;50.832;5.590;2022-10-17T07:50:07;18.30;99.90
29849;DHT22;16728;50.832;5.590;2022-10-17T07:53:09;18.30;99.90
29849;DHT22;16728;50.832;5.590;2022-10-17T07:56:12;18.40;99.90
29849;DHT22;16728;50.832;5.590;2022-10-17T07:59:17;18.40;99.90
29849;DHT22;16728;50.832;5.590;2022-10-17T08:02:23;18.40;99.90
29849;DHT22;16728;50.832;5.590;2022-10-17T08:05:25;18.50;99.90
29849;DHT22;16728;50.832;5.590;2022-10-17T08:08:28;18.50;99.90
29849;DHT22;16728;50.832;5.590;2022-10-17T08:11:30;18.50;99.90
29849;DHT22;16728;50.832;5.590;2022-10-17T08:14:32;18.50;99.90
29849;DHT22;16728;50.832;5.590;2022-10-17T08:17:35;18.60;99.90
29849;DHT22;16728;50.832;5.590;2022-10-17T08:20:37;18.60;99.90
29849;DHT22;16728;50.832;5.590;2022-10-17T08:23:39;18.70;99.90
29849;DHT22;16728;50.832;5.590;2022-10-17T08:26:41;18.70;99.90
29849;DHT22;16728;50.832;5.590;2022-10-17T08:29:46;18.70;99.90
29849;DHT22;16728;50.832;5.590;2022-10-17T08:32:49;18.70;99.90
29849;DHT22;16728;50.832;5.590;2022-10-17T08:35:51;18.70;99.90
29849;DHT22;16728;50.832;5.590;2022-10-17T08:38:53;18.70;99.90
29849;DHT22;16728;50.832;5.590;2022-10-17T08:42:08;18.60;99.90
29849;DHT22;16728;50.832;5.590;2022-10-17T08:48:36;18.60;99.90
29849;DHT22;16728;50.832;5.590;2022-10-17T08:51:53;18.70;99.90
29849;DHT22;16728;50.832;5.590;2022-10-17T08:54:56;18.70;99.90
29849;DHT22;16728;50.832;5.590;2022-10-17T08:57:59;18.60;99.90
29849;DHT22;16728;50.832;5.590;2022-10-17T09:11:36;18.60;99.90
29849;DHT22;16728;50.832;5.590;2022-10-17T09:17:55;18.70;99.90
29849;DHT22;16728;50.832;5.590;2022-10-17T09:21:20;18.70;99.90
29849;DHT22;16728;50.832;5.590;2022-10-17T09:27:43;18.70;99.90
29849;DHT22;16728;50.832;5.590;2022-10-17T09:30:55;18.70;99.90
29849;DHT22;16728;50.832;5.590;2022-10-17T09:34:00;18.80;99.90
29849;DHT22;16728;50.832;5.590;2022-10-17T09:37:03;18.80;99.90
29849;DHT22;16728;50.832;5.590;2022-10-17T09:40:21;18.80;99.90
29849;DHT22;16728;50.832;5.590;2022-10-17T09:43:25;18.80;99.90
29849;DHT22;16728;50.832;5.590;2022-10-17T09:46:36;18.80;99.90
29849;DHT22;16728;50.832;5.590;2022-10-17T09:49:41;18.80;99.90
29849;DHT22;16728;50.832;5.590;2022-10-17T09:52:44;18.80;99.90
29849;DHT22;16728;50.832;5.590;2022-10-17T09:55:52;18.70;99.90
29849;DHT22;16728;50.832;5.590;2022-10-17T09:58:57;18.70;99.90
29849;DHT22;16728;50.832;5.590;2022-10-17T10:05:17;18.60;99.90
29849;DHT22;16728;50.832;5.590;2022-10-17T10:08:22;18.60;99.90
29849;DHT22;16728;50.832;5.590;2022-10-17T10:14:50;18.50;99.90
29849;DHT22;16728;50.832;5.590;2022-10-17T10:17:55;18.50;99.90
29849;DHT22;16728;50.832;5.590;2022-10-17T10:21:19;18.50;99.90
29849;DHT22;16728;50.832;5.590;2022-10-17T10:24:21;18.50;99.90
29849;DHT22;16728;50.832;5.590;2022-10-17T10:27:30;18.50;99.90
29849;DHT22;16728;50.832;5.590;2022-10-17T10:30:31;18.50;99.90
29849;DHT22;16728;50.832;5.590;2022-10-17T10:33:41;18.50;99.90
29849;DHT22;16728;50.832;5.590;2022-10-17T10:36:54;18.50;99.90
29849;DHT22;16728;50.832;5.590;2022-10-17T10:40:02;18.50;99.90
29849;DHT22;16728;50.832;5.590;2022-10-17T10:43:05;18.50;99.90
29849;DHT22;16728;50.832;5.590;2022-10-17T10:49:29;18.50;99.90
29849;DHT22;16728;50.832;5.590;2022-10-17T10:52:44;18.50;99.90
29849;DHT22;16728;50.832;5.590;2022-10-17T10:55:51;18.50;99.90
29849;DHT22;16728;50.832;5.590;2022-10-17T10:58:59;18.50;99.90
29849;DHT22;16728;50.832;5.590;2022-10-17T11:15:29;18.60;99.90
29849;DHT22;16728;50.832;5.590;2022-10-17T11:18:52;18.60;99.90
29849;DHT22;16728;50.832;5.590;2022-10-17T11:22:14;18.60;99.90
29849;DHT22;16728;50.832;5.590;2022-10-17T11:28:25;18.70;99.90
29849;DHT22;16728;50.832;5.590;2022-10-17T11:31:31;18.70;99.90
29849;DHT22;16728;50.832;5.590;2022-10-17T11:34:41;18.70;99.90
29849;DHT22;16728;50.832;5.590;2022-10-17T11:37:50;18.80;99.90
29849;DHT22;16728;50.832;5.590;2022-10-17T11:40:56;18.80;99.90
29849;DHT22;16728;50.832;5.590;2022-10-17T11:44:21;18.80;99.90
29849;DHT22;16728;50.832;5.590;2022-10-17T11:50:34;18.80;99.90
29849;DHT22;16728;50.832;5.590;2022-10-17T11:54:03;18.80;99.90
29849;DHT22;16728;50.832;5.590;2022-10-17T12:04:52;18.80;99.90
29849;DHT22;16728;50.832;5.590;2022-10-17T12:14:45;18.90;99.90
29849;DHT22;16728;50.832;5.590;2022-10-17T12:21:01;18.80;99.90
29849;DHT22;16728;50.832;5.590;2022-10-17T12:24:03;18.90;99.90
29849;DHT22;16728;50.832;5.590;2022-10-17T12:30:33;18.80;99.90
29849;DHT22;16728;50.832;5.590;2022-10-17T12:36:52;18.80;99.90
29849;DHT22;16728;50.832;5.590;2022-10-17T12:39:54;18.80;99.90
29849;DHT22;16728;50.832;5.590;2022-10-17T12:42:55;18.90;99.90
29849;DHT22;16728;50.832;5.590;2022-10-17T12:46:01;18.90;99.90
29849;DHT22;16728;50.832;5.590;2022-10-17T12:55:41;18.80;99.90
29849;DHT22;16728;50.832;5.590;2022-10-17T12:58:47;18.80;99.90
29849;DHT22;16728;50.832;5.590;2022-10-17T13:01:55;18.80;99.90
29849;DHT22;16728;50.832;5.590;2022-10-17T13:05:06;18.80;99.90
29849;DHT22;16728;50.832;5.590;2022-10-17T13:08:24;18.80;99.90
29849;DHT22;16728;50.832;5.590;2022-10-17T13:11:30;18.90;99.90
29849;DHT22;16728;50.832;5.590;2022-10-17T13:14:33;18.90;99.90
29849;DHT22;16728;50.832;5.590;2022-10-17T13:17:35;18.90;99.90
29849;DHT22;16728;50.832;5.590;2022-10-17T13:20:42;19.00;99.90
29849;DHT22;16728;50.832;5.590;2022-10-17T13:23:43;19.00;99.90
29849;DHT22;16728;50.832;5.590;2022-10-17T13:26:45;19.10;99.90
29849;DHT22;16728;50.832;5.590;2022-10-17T13:29:48;19.10;99.90
29849;DHT22;16728;50.832;5.590;2022-10-17T13:32:50;19.10;99.90
29849;DHT22;16728;50.832;5.590;2022-10-17T13:35:52;19.10;99.90
29849;DHT22;16728;50.832;5.590;2022-10-17T13:39:07;19.10;99.90
29849;DHT22;16728;50.832;5.590;2022-10-17T13:42:37;19.10;99.90
29849;DHT22;16728;50.832;5.590;2022-10-17T13:45:49;19.10;99.90
29849;DHT22;16728;50.832;5.590;2022-10-17T13:48:52;19.10;99.90
29849;DHT22;16728;50.832;5.590;2022-10-17T13:51:55;19.10;99.90
29849;DHT22;16728;50.832;5.590;2022-10-17T13:55:13;19.00;99.90
29849;DHT22;16728;50.832;5.590;2022-10-17T13:58:19;19.10;99.90
29849;DHT22;16728;50.832;5.590;2022-10-17T14:01:21;19.10;99.90
29849;DHT22;16728;50.832;5.590;2022-10-17T14:04:23;19.00;99.90
29849;DHT22;16728;50.832;5.590;2022-10-17T14:14:25;19.00;99.90
29849;DHT22;16728;50.832;5.590;2022-10-17T14:17:28;19.00;99.90
29849;DHT22;16728;50.832;5.590;2022-10-17T14:20:31;19.00;99.90
29849;DHT22;16728;50.832;5.590;2022-10-17T14:24:25;18.90;99.90
29849;DHT22;16728;50.832;5.590;2022-10-17T14:30:33;18.90;99.90
29849;DHT22;16728;50.832;5.590;2022-10-17T14:33:56;18.80;99.90
29849;DHT22;16728;50.832;5.590;2022-10-17T14:36:58;18.70;99.90
29849;DHT22;16728;50.832;5.590;2022-10-17T14:40:03;18.70;99.90
29849;DHT22;16728;50.832;5.590;2022-10-17T14:43:05;18.70;99.90
29849;DHT22;16728;50.832;5.590;2022-10-17T14:46:15;18.70;99.90
29849;DHT22;16728;50.832;5.590;2022-10-17T14:49:25;18.70;99.90
29849;DHT22;16728;50.832;5.590;2022-10-17T14:52:29;18.60;99.90
29849;DHT22;16728;50.832;5.590;2022-10-17T14:55:36;18.70;99.90
29849;DHT22;16728;50.832;5.590;2022-10-17T14:58:38;18.70;99.90
29849;DHT22;16728;50.832;5.590;2022-10-17T15:01:40;18.60;99.90
29849;DHT22;16728;50.832;5.590;2022-10-17T15:04:42;18.60;99.90
29849;DHT22;16728;50.832;5.590;2022-10-17T15:07:44;18.50;99.90
29849;DHT22;16728;50.832;5.590;2022-10-17T15:10:48;18.50;99.90
29849;DHT22;16728;50.832;5.590;2022-10-17T15:13:50;18.50;99.90
29849;DHT22;16728;50.832;5.590;2022-10-17T15:16:52;18.50;99.90
29849;DHT22;16728;50.832;5.590;2022-10-17T15:19:55;18.50;99.90
29849;DHT22;16728;50.832;5.590;2022-10-17T15:22:59;18.40;99.90
29849;DHT22;16728;50.832;5.590;2022-10-17T15:26:01;18.40;99.90
29849;DHT22;16728;50.832;5.590;2022-10-17T15:29:03;18.40;99.90
29849;DHT22;16728;50.832;5.590;2022-10-17T15:32:05;18.30;99.90
29849;DHT22;16728;50.832;5.590;2022-10-17T15:35:07;18.30;99.90
29849;DHT22;16728;50.832;5.590;2022-10-17T15:38:11;18.30;99.90
29849;DHT22;16728;50.832;5.590;2022-10-17T15:41:16;18.20;99.90
29849;DHT22;16728;50.832;5.590;2022-10-17T15:44:18;18.20;99.90
29849;DHT22;16728;50.832;5.590;2022-10-17T15:47:27;18.20;99.90
29849;DHT22;16728;50.832;5.590;2022-10-17T15:50:30;18.10;99.90
29849;DHT22;16728;50.832;5.590;2022-10-17T15:53:32;18.10;99.90
29849;DHT22;16728;50.832;5.590;2022-10-17T15:56:37;18.10;99.90
29849;DHT22;16728;50.832;5.590;2022-10-17T15:59:40;18.10;99.90
29849;DHT22;16728;50.832;5.590;2022-10-17T16:02:43;18.00;99.90
29849;DHT22;16728;50.832;5.590;2022-10-17T16:05:45;18.10;99.90
29849;DHT22;16728;50.832;5.590;2022-10-17T16:08:48;18.00;99.90
29849;DHT22;16728;50.832;5.590;2022-10-17T16:11:50;18.00;99.90
29849;DHT22;16728;50.832;5.590;2022-10-17T16:14:51;18.00;99.90
29849;DHT22;16728;50.832;5.590;2022-10-17T16:17:55;18.00;99.90
29849;DHT22;16728;50.832;5.590;2022-10-17T16:20:57;18.00;99.90
29849;DHT22;16728;50.832;5.590;2022-10-17T16:23:59;18.00;99.90
29849;DHT22;16728;50.832;5.590;2022-10-17T16:27:01;18.00;99.90
29849;DHT22;16728;50.832;5.590;2022-10-17T16:30:04;18.00;99.90
29849;DHT22;16728;50.832;5.590;2022-10-17T16:33:07;17.90;99.90
29849;DHT22;16728;50.832;5.590;2022-10-17T16:36:10;17.90;99.90
29849;DHT22;16728;50.832;5.590;2022-10-17T16:39:11;17.90;99.90
29849;DHT22;16728;50.832;5.590;2022-10-17T16:42:13;17.80;99.90
29849;DHT22;16728;50.832;5.590;2022-10-17T16:45:17;17.80;99.90
29849;DHT22;16728;50.832;5.590;2022-10-17T16:48:19;17.80;99.90
29849;DHT22;16728;50.832;5.590;2022-10-17T16:51:24;17.70;99.90
29849;DHT22;16728;50.832;5.590;2022-10-17T16:54:26;17.70;99.90
29849;DHT22;16728;50.832;5.590;2022-10-17T16:57:28;17.60;99.90
29849;DHT22;16728;50.832;5.590;2022-10-17T17:00:31;17.60;99.90
29849;DHT22;16728;50.832;5.590;2022-10-17T17:03:35;17.60;99.90
29849;DHT22;16728;50.832;5.590;2022-10-17T17:06:37;17.60;99.90
29849;DHT22;16728;50.832;5.590;2022-10-17T17:09:39;17.50;99.90
29849;DHT22;16728;50.832;5.590;2022-10-17T17:12:41;17.50;99.90
29849;DHT22;16728;50.832;5.590;2022-10-17T17:15:43;17.50;99.90
29849;DHT22;16728;50.832;5.590;2022-10-17T17:18:46;17.50;99.90
29849;DHT22;16728;50.832;5.590;2022-10-17T17:21:49;17.40;99.90
29849;DHT22;16728;50.832;5.590;2022-10-17T17:24:51;17.40;99.90
29849;DHT22;16728;50.832;5.590;2022-10-17T17:27:53;17.30;99.90
29849;DHT22;16728;50.832;5.590;2022-10-17T17:30:55;17.30;99.90
29849;DHT22;16728;50.832;5.590;2022-10-17T17:33:57;17.30;99.90
29849;DHT22;16728;50.832;5.590;2022-10-17T17:36:59;17.30;99.90
29849;DHT22;16728;50.832;5.590;2022-10-17T17:40:01;17.30;99.90
29849;DHT22;16728;50.832;5.590;2022-10-17T17:43:03;17.30;99.90
29849;DHT22;16728;50.832;5.590;2022-10-17T17:46:06;17.30;99.90
29849;DHT22;16728;50.832;5.590;2022-10-17T17:49:09;17.20;99.90
29849;DHT22;16728;50.832;5.590;2022-10-17T17:52:12;17.20;99.90
29849;DHT22;16728;50.832;5.590;2022-10-17T17:55:13;17.20;99.90
29849;DHT22;16728;50.832;5.590;2022-10-17T17:58:16;17.10;99.90
29849;DHT22;16728;50.832;5.590;2022-10-17T18:01:21;17.10;99.90
29849;DHT22;16728;50.832;5.590;2022-10-17T18:04:23;17.10;99.90
29849;DHT22;16728;50.832;5.590;2022-10-17T18:07:24;17.00;99.90
29849;DHT22;16728;50.832;5.590;2022-10-17T18:10:27;17.00;99.90
29849;DHT22;16728;50.832;5.590;2022-10-17T18:13:30;17.00;99.90
29849;DHT22;16728;50.832;5.590;2022-10-17T18:16:33;16.90;99.90
29849;DHT22;16728;50.832;5.590;2022-10-17T18:19:36;16.90;99.90
29849;DHT22;16728;50.832;5.590;2022-10-17T18:22:37;16.90;99.90
29849;DHT22;16728;50.832;5.590;2022-10-17T18:25:39;17.00;99.90
29849;DHT22;16728;50.832;5.590;2022-10-17T18:28:42;16.90;99.90
29849;DHT22;16728;50.832;5.590;2022-10-17T18:31:44;16.90;99.90
29849;DHT22;16728;50.832;5.590;2022-10-17T18:34:45;16.90;99.90
29849;DHT22;16728;50.832;5.590;2022-10-17T18:37:47;16.90;99.90
29849;DHT22;16728;50.832;5.590;2022-10-17T18:41:04;16.80;99.90
29849;DHT22;16728;50.832;5.590;2022-10-17T18:44:06;16.90;99.90
29849;DHT22;16728;50.832;5.590;2022-10-17T18:47:08;16.80;99.90
29849;DHT22;16728;50.832;5.590;2022-10-17T18:50:11;16.80;99.90
29849;DHT22;16728;50.832;5.590;2022-10-17T18:53:13;16.80;99.90
29849;DHT22;16728;50.832;5.590;2022-10-17T18:56:15;16.80;99.90
29849;DHT22;16728;50.832;5.590;2022-10-17T18:59:19;16.70;99.90
29849;DHT22;16728;50.832;5.590;2022-10-17T19:02:21;16.70;99.90
29849;DHT22;16728;50.832;5.590;2022-10-17T19:05:23;16.80;99.90
29849;DHT22;16728;50.832;5.590;2022-10-17T19:08:24;16.80;99.90
29849;DHT22;16728;50.832;5.590;2022-10-17T19:11:28;16.80;99.90
29849;DHT22;16728;50.832;5.590;2022-10-17T19:14:30;16.80;99.90
29849;DHT22;16728;50.832;5.590;2022-10-17T19:17:32;16.70;99.90
29849;DHT22;16728;50.832;5.590;2022-10-17T19:20:34;16.70;99.90
29849;DHT22;16728;50.832;5.590;2022-10-17T19:23:37;16.70;99.90
29849;DHT22;16728;50.832;5.590;2022-10-17T19:26:39;16.70;99.90
29849;DHT22;16728;50.832;5.590;2022-10-17T19:29:42;16.70;99.90
29849;DHT22;16728;50.832;5.590;2022-10-17T19:32:44;16.70;99.90
29849;DHT22;16728;50.832;5.590;2022-10-17T19:35:54;16.70;99.90
29849;DHT22;16728;50.832;5.590;2022-10-17T19:38:57;16.60;99.90
29849;DHT22;16728;50.832;5.590;2022-10-17T19:41:59;16.60;99.90
29849;DHT22;16728;50.832;5.590;2022-10-17T19:45:08;16.60;99.90
29849;DHT22;16728;50.832;5.590;2022-10-17T19:48:10;16.60;99.90
29849;DHT22;16728;50.832;5.590;2022-10-17T19:51:14;16.60;99.90
29849;DHT22;16728;50.832;5.590;2022-10-17T19:54:16;16.60;99.90
29849;DHT22;16728;50.832;5.590;2022-10-17T19:57:20;16.50;99.90
29849;DHT22;16728;50.832;5.590;2022-10-17T20:00:22;16.50;99.90
29849;DHT22;16728;50.832;5.590;2022-10-17T20:03:24;16.50;99.90
29849;DHT22;16728;50.832;5.590;2022-10-17T20:06:26;16.50;99.90
29849;DHT22;16728;50.832;5.590;2022-10-17T20:09:28;16.50;99.90
29849;DHT22;16728;50.832;5.590;2022-10-17T20:12:31;16.40;99.90
29849;DHT22;16728;50.832;5.590;2022-10-17T20:15:33;16.40;99.90
29849;DHT22;16728;50.832;5.590;2022-10-17T20:18:36;16.40;99.90
29849;DHT22;16728;50.832;5.590;2022-10-17T20:21:38;16.30;99.90
29849;DHT22;16728;50.832;5.590;2022-10-17T20:24:40;16.30;99.90
29849;DHT22;16728;50.832;5.590;2022-10-17T20:27:42;16.30;99.90
29849;DHT22;16728;50.832;5.590;2022-10-17T20:30:44;16.30;99.90
29849;DHT22;16728;50.832;5.590;2022-10-17T20:33:47;16.30;99.90
29849;DHT22;16728;50.832;5.590;2022-10-17T20:36:49;16.30;99.90
29849;DHT22;16728;50.832;5.590;2022-10-17T20:39:51;16.30;99.90
29849;DHT22;16728;50.832;5.590;2022-10-17T20:43:12;16.30;99.90
29849;DHT22;16728;50.832;5.590;2022-10-17T20:46:15;16.30;99.90
29849;DHT22;16728;50.832;5.590;2022-10-17T20:49:36;16.30;99.90
29849;DHT22;16728;50.832;5.590;2022-10-17T20:52:38;16.30;99.90
29849;DHT22;16728;50.832;5.590;2022-10-17T20:55:40;16.30;99.90
29849;DHT22;16728;50.832;5.590;2022-10-17T20:58:42;16.30;99.90
29849;DHT22;16728;50.832;5.590;2022-10-17T21:01:45;16.30;99.90
29849;DHT22;16728;50.832;5.590;2022-10-17T21:04:47;16.30;99.90
29849;DHT22;16728;50.832;5.590;2022-10-17T21:07:50;16.30;99.90
29849;DHT22;16728;50.832;5.590;2022-10-17T21:10:52;16.30;99.90
29849;DHT22;16728;50.832;5.590;2022-10-17T21:13:59;16.20;99.90